sensor_id;sensor_type;location;lat;lon;timestamp;pressure;altitude;pressure_sealevel;temperature;humidity
37304;BME280;23188;51.188;16.374;2022-11-18T00:00:43;98994.88;;;3.85;93.34
37304;BME280;23188;51.188;16.374;2022-11-18T00:04:45;98997.16;;;3.84;93.79
37304;BME280;23188;51.188;16.374;2022-11-18T00:08:46;99001.83;;;3.86;93.59
37304;BME280;23188;51.188;16.374;2022-11-18T00:12:47;99001.23;;;3.89;93.77
37304;BME280;23188;51.188;16.374;2022-11-18T00:17:08;98998.83;;;3.85;93.06
37304;BME280;23188;51.188;16.374;2022-11-18T00:21:10;98999.45;;;3.89;93.94
37304;BME280;23188;51.188;16.374;2022-11-18T00:25:12;98993.47;;;3.87;93.02
37304;BME280;23188;51.188;16.374;2022-11-18T00:29:14;98991.22;;;3.94;94.06
37304;BME280;23188;51.188;16.374;2022-11-18T00:33:15;98987.50;;;3.96;95.09
37304;BME280;23188;51.188;16.374;2022-11-18T00:37:17;98996.97;;;3.99;95.54
37304;BME280;23188;51.188;16.374;2022-11-18T00:41:18;98989.31;;;3.96;95.90
37304;BME280;23188;51.188;16.374;2022-11-18T00:45:20;98987.13;;;3.90;95.58
37304;BME280;23188;51.188;16.374;2022-11-18T00:49:22;98994.53;;;3.84;95.42
37304;BME280;23188;51.188;16.374;2022-11-18T00:53:25;98989.83;;;3.77;95.40
37304;BME280;23188;51.188;16.374;2022-11-18T00:57:27;99001.67;;;3.77;95.69
37304;BME280;23188;51.188;16.374;2022-11-18T01:01:28;98981.42;;;3.66;95.24
37304;BME280;23188;51.188;16.374;2022-11-18T01:05:29;98986.95;;;3.68;95.94
37304;BME280;23188;51.188;16.374;2022-11-18T01:09:30;98982.73;;;3.66;96.89
37304;BME280;23188;51.188;16.374;2022-11-18T01:13:32;98980.67;;;3.58;96.91
37304;BME280;23188;51.188;16.374;2022-11-18T01:17:33;98993.95;;;3.56;96.37
37304;BME280;23188;51.188;16.374;2022-11-18T01:21:34;98984.59;;;3.52;96.05
37304;BME280;23188;51.188;16.374;2022-11-18T01:25:37;98992.70;;;3.49;96.97
37304;BME280;23188;51.188;16.374;2022-11-18T01:29:39;98982.28;;;3.42;96.88
37304;BME280;23188;51.188;16.374;2022-11-18T01:33:42;98978.57;;;3.39;97.42
37304;BME280;23188;51.188;16.374;2022-11-18T01:37:43;98989.09;;;3.39;97.59
37304;BME280;23188;51.188;16.374;2022-11-18T01:41:44;98998.88;;;3.37;98.39
37304;BME280;23188;51.188;16.374;2022-11-18T01:45:48;98992.14;;;3.33;97.09
37304;BME280;23188;51.188;16.374;2022-11-18T01:50:00;98987.20;;;3.22;97.30
37304;BME280;23188;51.188;16.374;2022-11-18T01:54:11;98988.84;;;3.18;97.01
37304;BME280;23188;51.188;16.374;2022-11-18T01:58:26;98985.80;;;3.11;96.91
37304;BME280;23188;51.188;16.374;2022-11-18T02:02:32;98988.97;;;3.16;97.46
37304;BME280;23188;51.188;16.374;2022-11-18T02:06:34;98985.70;;;3.12;97.83
37304;BME280;23188;51.188;16.374;2022-11-18T02:10:36;98993.10;;;3.13;98.70
37304;BME280;23188;51.188;16.374;2022-11-18T02:14:40;98994.18;;;3.10;98.31
37304;BME280;23188;51.188;16.374;2022-11-18T02:18:57;98994.78;;;3.14;98.53
37304;BME280;23188;51.188;16.374;2022-11-18T02:32:25;98981.45;;;2.98;98.54
37304;BME280;23188;51.188;16.374;2022-11-18T02:40:52;98980.27;;;3.03;98.54
37304;BME280;23188;51.188;16.374;2022-11-18T02:45:07;98984.31;;;3.01;98.33
37304;BME280;23188;51.188;16.374;2022-11-18T02:49:19;98981.73;;;3.07;99.02
37304;BME280;23188;51.188;16.374;2022-11-18T02:53:22;98978.15;;;3.08;98.30
37304;BME280;23188;51.188;16.374;2022-11-18T02:57:25;98965.83;;;3.03;98.64
37304;BME280;23188;51.188;16.374;2022-11-18T03:01:32;98970.40;;;3.06;99.11
37304;BME280;23188;51.188;16.374;2022-11-18T03:05:50;98953.05;;;3.04;99.66
37304;BME280;23188;51.188;16.374;2022-11-18T03:09:50;98950.42;;;3.04;99.24
37304;BME280;23188;51.188;16.374;2022-11-18T03:23:13;98945.62;;;2.97;99.49
37304;BME280;23188;51.188;16.374;2022-11-18T03:27:30;98947.88;;;2.96;99.17
37304;BME280;23188;51.188;16.374;2022-11-18T03:32:09;98961.92;;;2.90;100.00
37304;BME280;23188;51.188;16.374;2022-11-18T03:36:14;98967.42;;;2.92;100.00
37304;BME280;23188;51.188;16.374;2022-11-18T03:40:22;98960.27;;;2.94;100.00
37304;BME280;23188;51.188;16.374;2022-11-18T03:44:34;98958.21;;;2.87;100.00
37304;BME280;23188;51.188;16.374;2022-11-18T03:48:43;98962.47;;;2.82;100.00
37304;BME280;23188;51.188;16.374;2022-11-18T03:52:47;98965.13;;;2.69;100.00
37304;BME280;23188;51.188;16.374;2022-11-18T03:56:53;98960.92;;;2.66;100.00
37304;BME280;23188;51.188;16.374;2022-11-18T04:01:03;98962.04;;;2.56;100.00
37304;BME280;23188;51.188;16.374;2022-11-18T04:05:07;98968.45;;;2.52;100.00
37304;BME280;23188;51.188;16.374;2022-11-18T04:09:19;98974.51;;;2.47;100.00
37304;BME280;23188;51.188;16.374;2022-11-18T04:13:25;98965.12;;;2.37;100.00
37304;BME280;23188;51.188;16.374;2022-11-18T04:17:28;98965.00;;;2.39;100.00
37304;BME280;23188;51.188;16.374;2022-11-18T04:21:29;98959.02;;;2.37;100.00
37304;BME280;23188;51.188;16.374;2022-11-18T04:25:31;98957.97;;;2.39;100.00
37304;BME280;23188;51.188;16.374;2022-11-18T04:29:33;98959.87;;;2.37;100.00
37304;BME280;23188;51.188;16.374;2022-11-18T04:33:34;98956.48;;;2.35;100.00
37304;BME280;23188;51.188;16.374;2022-11-18T04:37:35;98972.92;;;2.45;100.00
37304;BME280;23188;51.188;16.374;2022-11-18T04:41:37;98975.55;;;2.45;100.00
37304;BME280;23188;51.188;16.374;2022-11-18T04:45:56;98975.26;;;2.55;100.00
37304;BME280;23188;51.188;16.374;2022-11-18T04:49:58;98980.56;;;2.61;100.00
37304;BME280;23188;51.188;16.374;2022-11-18T04:53:59;98981.05;;;2.60;100.00
37304;BME280;23188;51.188;16.374;2022-11-18T04:58:00;98979.05;;;2.51;100.00
37304;BME280;23188;51.188;16.374;2022-11-18T05:02:02;98983.20;;;2.48;100.00
37304;BME280;23188;51.188;16.374;2022-11-18T05:06:04;98984.88;;;2.49;100.00
37304;BME280;23188;51.188;16.374;2022-11-18T05:10:06;98989.41;;;2.47;100.00
37304;BME280;23188;51.188;16.374;2022-11-18T05:14:08;98986.84;;;2.39;100.00
37304;BME280;23188;51.188;16.374;2022-11-18T05:18:10;98991.73;;;2.38;100.00
37304;BME280;23188;51.188;16.374;2022-11-18T05:22:11;99007.27;;;2.41;100.00
37304;BME280;23188;51.188;16.374;2022-11-18T05:26:14;99002.74;;;2.43;100.00
37304;BME280;23188;51.188;16.374;2022-11-18T05:30:15;99002.32;;;2.37;100.00
37304;BME280;23188;51.188;16.374;2022-11-18T05:34:17;99006.47;;;2.34;100.00
37304;BME280;23188;51.188;16.374;2022-11-18T05:38:22;99009.16;;;2.26;100.00
37304;BME280;23188;51.188;16.374;2022-11-18T05:42:23;99020.34;;;2.16;100.00
37304;BME280;23188;51.188;16.374;2022-11-18T05:46:50;99024.03;;;2.13;100.00
37304;BME280;23188;51.188;16.374;2022-11-18T05:50:52;99021.83;;;2.07;100.00
37304;BME280;23188;51.188;16.374;2022-11-18T05:55:01;99035.04;;;2.05;100.00
37304;BME280;23188;51.188;16.374;2022-11-18T05:59:04;99032.99;;;2.03;100.00
37304;BME280;23188;51.188;16.374;2022-11-18T06:03:08;99035.04;;;2.05;100.00
37304;BME280;23188;51.188;16.374;2022-11-18T06:07:37;99040.95;;;2.02;99.47
37304;BME280;23188;51.188;16.374;2022-11-18T06:11:40;99050.25;;;2.00;99.18
37304;BME280;23188;51.188;16.374;2022-11-18T06:15:45;99054.55;;;2.01;99.58
37304;BME280;23188;51.188;16.374;2022-11-18T06:19:46;99061.27;;;2.05;98.80
37304;BME280;23188;51.188;16.374;2022-11-18T06:23:48;99073.13;;;1.98;96.92
37304;BME280;23188;51.188;16.374;2022-11-18T06:27:50;99083.91;;;1.93;96.57
37304;BME280;23188;51.188;16.374;2022-11-18T06:31:54;99088.13;;;1.89;95.84
37304;BME280;23188;51.188;16.374;2022-11-18T06:35:55;99090.75;;;1.89;95.18
37304;BME280;23188;51.188;16.374;2022-11-18T06:39:56;99109.34;;;1.78;94.35
37304;BME280;23188;51.188;16.374;2022-11-18T06:43:58;99104.59;;;1.70;95.23
37304;BME280;23188;51.188;16.374;2022-11-18T06:48:00;99103.20;;;1.65;94.65
37304;BME280;23188;51.188;16.374;2022-11-18T06:52:01;99091.48;;;1.63;96.04
37304;BME280;23188;51.188;16.374;2022-11-18T06:56:04;99092.72;;;1.65;97.56
37304;BME280;23188;51.188;16.374;2022-11-18T07:00:10;99111.47;;;1.59;98.61
37304;BME280;23188;51.188;16.374;2022-11-18T07:04:12;99118.88;;;1.52;99.75
37304;BME280;23188;51.188;16.374;2022-11-18T07:08:13;99127.30;;;1.42;100.00
37304;BME280;23188;51.188;16.374;2022-11-18T07:12:14;99124.78;;;1.34;100.00
37304;BME280;23188;51.188;16.374;2022-11-18T07:16:18;99128.36;;;1.25;100.00
37304;BME280;23188;51.188;16.374;2022-11-18T07:20:24;99124.05;;;1.24;100.00
37304;BME280;23188;51.188;16.374;2022-11-18T07:24:25;99125.17;;;1.13;100.00
37304;BME280;23188;51.188;16.374;2022-11-18T07:28:27;99129.00;;;1.07;100.00
37304;BME280;23188;51.188;16.374;2022-11-18T07:32:31;99133.04;;;1.06;100.00
37304;BME280;23188;51.188;16.374;2022-11-18T07:36:33;99139.11;;;0.99;100.00
37304;BME280;23188;51.188;16.374;2022-11-18T07:40:35;99147.91;;;0.98;100.00
37304;BME280;23188;51.188;16.374;2022-11-18T07:44:36;99137.88;;;0.97;100.00
37304;BME280;23188;51.188;16.374;2022-11-18T07:48:37;99147.16;;;0.96;100.00
37304;BME280;23188;51.188;16.374;2022-11-18T07:52:38;99129.47;;;0.92;100.00
37304;BME280;23188;51.188;16.374;2022-11-18T07:56:40;99142.11;;;0.93;100.00
37304;BME280;23188;51.188;16.374;2022-11-18T08:00:41;99146.50;;;0.85;100.00
37304;BME280;23188;51.188;16.374;2022-11-18T08:08:57;99155.55;;;0.87;100.00
37304;BME280;23188;51.188;16.374;2022-11-18T08:12:59;99149.78;;;0.96;100.00
37304;BME280;23188;51.188;16.374;2022-11-18T08:17:00;99152.58;;;1.00;100.00
37304;BME280;23188;51.188;16.374;2022-11-18T08:21:02;99150.44;;;1.07;100.00
37304;BME280;23188;51.188;16.374;2022-11-18T08:25:04;99143.14;;;1.05;100.00
37304;BME280;23188;51.188;16.374;2022-11-18T08:29:06;99160.17;;;1.05;100.00
37304;BME280;23188;51.188;16.374;2022-11-18T08:33:08;99156.88;;;1.01;99.21
37304;BME280;23188;51.188;16.374;2022-11-18T08:37:09;99164.55;;;1.04;98.54
37304;BME280;23188;51.188;16.374;2022-11-18T08:41:12;99173.64;;;1.06;98.25
37304;BME280;23188;51.188;16.374;2022-11-18T08:45:15;99168.58;;;1.10;97.90
37304;BME280;23188;51.188;16.374;2022-11-18T08:49:17;99170.55;;;1.21;97.96
37304;BME280;23188;51.188;16.374;2022-11-18T08:53:18;99171.66;;;1.24;96.00
37304;BME280;23188;51.188;16.374;2022-11-18T08:57:19;99177.75;;;1.32;96.00
37304;BME280;23188;51.188;16.374;2022-11-18T09:01:21;99180.56;;;1.28;94.21
37304;BME280;23188;51.188;16.374;2022-11-18T09:05:23;99188.78;;;1.37;92.82
37304;BME280;23188;51.188;16.374;2022-11-18T09:09:24;99183.73;;;1.34;91.94
37304;BME280;23188;51.188;16.374;2022-11-18T09:13:25;99180.09;;;1.36;92.06
37304;BME280;23188;51.188;16.374;2022-11-18T09:17:26;99177.94;;;1.28;91.01
37304;BME280;23188;51.188;16.374;2022-11-18T09:25:44;99196.38;;;1.34;90.97
37304;BME280;23188;51.188;16.374;2022-11-18T09:29:45;99197.97;;;1.30;89.93
37304;BME280;23188;51.188;16.374;2022-11-18T09:33:46;99197.30;;;1.26;89.84
37304;BME280;23188;51.188;16.374;2022-11-18T09:37:48;99200.49;;;1.17;89.08
37304;BME280;23188;51.188;16.374;2022-11-18T09:42:14;99198.72;;;1.24;90.13
37304;BME280;23188;51.188;16.374;2022-11-18T09:46:24;99202.83;;;1.28;89.94
37304;BME280;23188;51.188;16.374;2022-11-18T09:50:42;99206.77;;;1.21;88.76
37304;BME280;23188;51.188;16.374;2022-11-18T09:54:44;99210.33;;;1.20;88.89
37304;BME280;23188;51.188;16.374;2022-11-18T09:58:45;99210.88;;;1.25;89.13
37304;BME280;23188;51.188;16.374;2022-11-18T10:07:25;99211.91;;;1.16;87.09
37304;BME280;23188;51.188;16.374;2022-11-18T10:11:45;99216.66;;;1.09;86.86
37304;BME280;23188;51.188;16.374;2022-11-18T10:25:33;99227.52;;;1.10;85.78
37304;BME280;23188;51.188;16.374;2022-11-18T10:29:35;99225.27;;;1.04;85.08
37304;BME280;23188;51.188;16.374;2022-11-18T10:33:37;99230.32;;;1.07;85.45
37304;BME280;23188;51.188;16.374;2022-11-18T10:37:39;99230.84;;;0.97;84.60
37304;BME280;23188;51.188;16.374;2022-11-18T10:45:46;99226.84;;;0.99;83.25
37304;BME280;23188;51.188;16.374;2022-11-18T10:49:48;99216.37;;;0.92;83.03
37304;BME280;23188;51.188;16.374;2022-11-18T10:54:21;99236.57;;;0.97;82.90
37304;BME280;23188;51.188;16.374;2022-11-18T10:58:36;99237.80;;;0.98;83.24
37304;BME280;23188;51.188;16.374;2022-11-18T11:02:49;99238.25;;;0.98;81.96
37304;BME280;23188;51.188;16.374;2022-11-18T11:06:50;99241.73;;;1.06;83.41
37304;BME280;23188;51.188;16.374;2022-11-18T11:10:56;99249.22;;;1.05;81.99
37304;BME280;23188;51.188;16.374;2022-11-18T11:15:04;99258.76;;;1.06;81.93
37304;BME280;23188;51.188;16.374;2022-11-18T11:19:09;99259.70;;;1.05;81.24
37304;BME280;23188;51.188;16.374;2022-11-18T11:23:14;99242.11;;;1.07;81.21
37304;BME280;23188;51.188;16.374;2022-11-18T11:27:36;99244.54;;;1.10;80.54
37304;BME280;23188;51.188;16.374;2022-11-18T11:36:21;99246.78;;;1.16;79.80
37304;BME280;23188;51.188;16.374;2022-11-18T11:40:38;99246.26;;;1.18;80.14
37304;BME280;23188;51.188;16.374;2022-11-18T11:49:53;99243.45;;;1.28;81.81
37304;BME280;23188;51.188;16.374;2022-11-18T11:54:10;99256.36;;;1.32;79.54
37304;BME280;23188;51.188;16.374;2022-11-18T12:12:35;99263.75;;;1.47;80.47
37304;BME280;23188;51.188;16.374;2022-11-18T12:16:59;99257.20;;;1.47;80.63
37304;BME280;23188;51.188;16.374;2022-11-18T12:21:04;99248.44;;;1.48;80.91
37304;BME280;23188;51.188;16.374;2022-11-18T12:33:56;99265.19;;;1.38;81.24
37304;BME280;23188;51.188;16.374;2022-11-18T12:38:10;99272.55;;;1.46;82.27
37304;BME280;23188;51.188;16.374;2022-11-18T12:47:03;99266.30;;;1.41;81.58
37304;BME280;23188;51.188;16.374;2022-11-18T12:55:28;99289.30;;;1.28;82.08
37304;BME280;23188;51.188;16.374;2022-11-18T12:59:45;99284.32;;;1.24;83.40
37304;BME280;23188;51.188;16.374;2022-11-18T13:03:46;99298.28;;;1.24;82.39
37304;BME280;23188;51.188;16.374;2022-11-18T13:07:56;99294.35;;;1.32;83.64
37304;BME280;23188;51.188;16.374;2022-11-18T13:12:26;99297.91;;;1.31;84.23
37304;BME280;23188;51.188;16.374;2022-11-18T13:16:29;99303.63;;;1.30;82.84
37304;BME280;23188;51.188;16.374;2022-11-18T13:21:02;99306.51;;;1.18;82.78
37304;BME280;23188;51.188;16.374;2022-11-18T13:29:48;99321.50;;;1.00;85.42
37304;BME280;23188;51.188;16.374;2022-11-18T13:33:51;99325.67;;;0.88;85.40
37304;BME280;23188;51.188;16.374;2022-11-18T13:37:55;99327.41;;;0.80;84.54
37304;BME280;23188;51.188;16.374;2022-11-18T13:42:01;99338.63;;;0.75;84.54
37304;BME280;23188;51.188;16.374;2022-11-18T13:46:14;99335.92;;;0.61;83.76
37304;BME280;23188;51.188;16.374;2022-11-18T13:50:46;99339.34;;;0.54;83.66
37304;BME280;23188;51.188;16.374;2022-11-18T13:54:55;99347.57;;;0.55;83.25
37304;BME280;23188;51.188;16.374;2022-11-18T13:58:59;99351.98;;;0.54;84.29
37304;BME280;23188;51.188;16.374;2022-11-18T14:03:04;99354.97;;;0.55;84.45
37304;BME280;23188;51.188;16.374;2022-11-18T14:11:39;99362.27;;;0.58;83.73
37304;BME280;23188;51.188;16.374;2022-11-18T14:15:42;99368.95;;;0.63;83.10
37304;BME280;23188;51.188;16.374;2022-11-18T14:19:51;99380.11;;;0.58;82.30
37304;BME280;23188;51.188;16.374;2022-11-18T14:23:54;99382.70;;;0.51;80.79
37304;BME280;23188;51.188;16.374;2022-11-18T14:27:57;99389.79;;;0.49;80.86
37304;BME280;23188;51.188;16.374;2022-11-18T14:32:21;99382.45;;;0.55;80.44
37304;BME280;23188;51.188;16.374;2022-11-18T14:36:23;99389.13;;;0.61;79.69
37304;BME280;23188;51.188;16.374;2022-11-18T14:40:24;99393.81;;;0.63;77.96
37304;BME280;23188;51.188;16.374;2022-11-18T14:44:26;99394.06;;;0.59;78.23
37304;BME280;23188;51.188;16.374;2022-11-18T14:48:29;99398.84;;;0.59;77.79
37304;BME280;23188;51.188;16.374;2022-11-18T14:52:41;99403.18;;;0.67;78.52
37304;BME280;23188;51.188;16.374;2022-11-18T14:56:43;99408.55;;;0.73;78.43
37304;BME280;23188;51.188;16.374;2022-11-18T15:00:47;99412.75;;;0.76;77.21
37304;BME280;23188;51.188;16.374;2022-11-18T15:04:49;99414.16;;;0.74;76.32
37304;BME280;23188;51.188;16.374;2022-11-18T15:09:05;99423.02;;;0.71;75.71
37304;BME280;23188;51.188;16.374;2022-11-18T15:13:08;99422.84;;;0.75;76.95
37304;BME280;23188;51.188;16.374;2022-11-18T15:17:27;99423.46;;;0.80;76.16
37304;BME280;23188;51.188;16.374;2022-11-18T15:21:29;99422.91;;;0.82;75.56
37304;BME280;23188;51.188;16.374;2022-11-18T15:25:32;99433.89;;;0.89;76.62
37304;BME280;23188;51.188;16.374;2022-11-18T15:29:34;99432.13;;;0.96;76.48
37304;BME280;23188;51.188;16.374;2022-11-18T15:33:35;99435.25;;;1.03;75.93
37304;BME280;23188;51.188;16.374;2022-11-18T15:37:36;99433.70;;;1.08;74.77
37304;BME280;23188;51.188;16.374;2022-11-18T15:41:40;99441.38;;;1.11;74.76
37304;BME280;23188;51.188;16.374;2022-11-18T15:45:44;99447.42;;;1.20;75.48
37304;BME280;23188;51.188;16.374;2022-11-18T15:49:46;99450.06;;;1.27;75.32
37304;BME280;23188;51.188;16.374;2022-11-18T15:53:54;99450.01;;;1.36;76.37
37304;BME280;23188;51.188;16.374;2022-11-18T15:57:56;99453.40;;;1.46;76.15
37304;BME280;23188;51.188;16.374;2022-11-18T16:01:57;99458.58;;;1.54;75.34
37304;BME280;23188;51.188;16.374;2022-11-18T16:05:58;99457.31;;;1.62;75.59
37304;BME280;23188;51.188;16.374;2022-11-18T16:09:59;99461.89;;;1.65;75.51
37304;BME280;23188;51.188;16.374;2022-11-18T16:14:37;99465.48;;;1.71;75.02
37304;BME280;23188;51.188;16.374;2022-11-18T16:18:39;99473.98;;;1.68;74.26
37304;BME280;23188;51.188;16.374;2022-11-18T16:22:40;99470.80;;;1.63;75.21
37304;BME280;23188;51.188;16.374;2022-11-18T16:26:41;99477.35;;;1.63;76.99
37304;BME280;23188;51.188;16.374;2022-11-18T16:30:49;99478.31;;;1.76;77.62
37304;BME280;23188;51.188;16.374;2022-11-18T16:35:28;99473.85;;;1.85;78.41
37304;BME280;23188;51.188;16.374;2022-11-18T16:39:34;99472.84;;;1.95;77.93
37304;BME280;23188;51.188;16.374;2022-11-18T16:43:37;99477.61;;;1.96;78.18
37304;BME280;23188;51.188;16.374;2022-11-18T16:47:39;99485.40;;;2.05;78.72
37304;BME280;23188;51.188;16.374;2022-11-18T16:51:43;99488.13;;;2.10;78.45
37304;BME280;23188;51.188;16.374;2022-11-18T16:55:59;99489.55;;;2.16;78.65
37304;BME280;23188;51.188;16.374;2022-11-18T17:00:05;99494.98;;;2.20;79.58
37304;BME280;23188;51.188;16.374;2022-11-18T17:04:08;99502.22;;;2.17;77.75
37304;BME280;23188;51.188;16.374;2022-11-18T17:08:12;99500.20;;;2.06;76.58
37304;BME280;23188;51.188;16.374;2022-11-18T17:12:13;99508.58;;;1.82;76.06
37304;BME280;23188;51.188;16.374;2022-11-18T17:16:16;99510.94;;;1.56;76.89
37304;BME280;23188;51.188;16.374;2022-11-18T17:20:19;99512.86;;;1.45;78.31
37304;BME280;23188;51.188;16.374;2022-11-18T17:24:23;99511.23;;;1.42;78.42
37304;BME280;23188;51.188;16.374;2022-11-18T17:28:25;99512.34;;;1.38;78.53
37304;BME280;23188;51.188;16.374;2022-11-18T17:32:29;99515.45;;;1.38;78.83
37304;BME280;23188;51.188;16.374;2022-11-18T17:36:31;99527.95;;;1.33;79.78
37304;BME280;23188;51.188;16.374;2022-11-18T17:40:32;99531.88;;;1.33;80.59
37304;BME280;23188;51.188;16.374;2022-11-18T17:44:34;99534.55;;;1.40;80.43
37304;BME280;23188;51.188;16.374;2022-11-18T17:48:36;99534.13;;;1.48;80.74
37304;BME280;23188;51.188;16.374;2022-11-18T17:52:37;99535.03;;;1.47;80.72
37304;BME280;23188;51.188;16.374;2022-11-18T17:56:38;99535.69;;;1.43;81.48
37304;BME280;23188;51.188;16.374;2022-11-18T18:00:40;99529.69;;;1.41;80.71
37304;BME280;23188;51.188;16.374;2022-11-18T18:04:41;99536.31;;;1.39;80.56
37304;BME280;23188;51.188;16.374;2022-11-18T18:08:43;99537.58;;;1.48;80.99
37304;BME280;23188;51.188;16.374;2022-11-18T18:12:44;99548.59;;;1.62;80.58
37304;BME280;23188;51.188;16.374;2022-11-18T18:17:04;99555.95;;;1.71;80.10
37304;BME280;23188;51.188;16.374;2022-11-18T18:21:06;99551.72;;;1.69;78.79
37304;BME280;23188;51.188;16.374;2022-11-18T18:25:08;99554.89;;;1.67;79.41
37304;BME280;23188;51.188;16.374;2022-11-18T18:29:11;99555.14;;;1.62;79.70
37304;BME280;23188;51.188;16.374;2022-11-18T18:33:13;99563.01;;;1.62;79.63
37304;BME280;23188;51.188;16.374;2022-11-18T18:37:14;99569.94;;;1.63;79.61
37304;BME280;23188;51.188;16.374;2022-11-18T18:41:19;99572.84;;;1.59;79.58
37304;BME280;23188;51.188;16.374;2022-11-18T18:45:22;99574.23;;;1.57;80.36
37304;BME280;23188;51.188;16.374;2022-11-18T18:49:43;99581.53;;;1.59;80.52
37304;BME280;23188;51.188;16.374;2022-11-18T18:53:44;99578.91;;;1.59;80.89
37304;BME280;23188;51.188;16.374;2022-11-18T18:57:46;99577.86;;;1.54;81.15
37304;BME280;23188;51.188;16.374;2022-11-18T19:01:47;99575.72;;;1.54;81.48
37304;BME280;23188;51.188;16.374;2022-11-18T19:05:54;99583.93;;;1.48;81.33
37304;BME280;23188;51.188;16.374;2022-11-18T19:09:56;99593.73;;;1.44;81.42
37304;BME280;23188;51.188;16.374;2022-11-18T19:14:09;99591.48;;;1.45;81.96
37304;BME280;23188;51.188;16.374;2022-11-18T19:18:12;99594.55;;;1.45;81.56
37304;BME280;23188;51.188;16.374;2022-11-18T19:22:14;99602.31;;;1.39;81.89
37304;BME280;23188;51.188;16.374;2022-11-18T19:26:17;99600.56;;;1.31;81.71
37304;BME280;23188;51.188;16.374;2022-11-18T19:30:18;99602.91;;;1.28;82.04
37304;BME280;23188;51.188;16.374;2022-11-18T19:34:20;99602.25;;;1.32;82.47
37304;BME280;23188;51.188;16.374;2022-11-18T19:38:21;99596.63;;;1.31;82.12
37304;BME280;23188;51.188;16.374;2022-11-18T19:42:38;99602.80;;;1.30;82.83
37304;BME280;23188;51.188;16.374;2022-11-18T19:46:41;99600.91;;;1.24;83.21
37304;BME280;23188;51.188;16.374;2022-11-18T19:50:43;99608.21;;;1.26;83.46
37304;BME280;23188;51.188;16.374;2022-11-18T19:54:44;99618.52;;;1.30;84.07
37304;BME280;23188;51.188;16.374;2022-11-18T19:58:47;99624.08;;;1.32;83.67
37304;BME280;23188;51.188;16.374;2022-11-18T20:02:49;99622.11;;;1.36;84.72
37304;BME280;23188;51.188;16.374;2022-11-18T20:06:53;99620.42;;;1.35;84.05
37304;BME280;23188;51.188;16.374;2022-11-18T20:10:58;99625.11;;;1.37;84.67
37304;BME280;23188;51.188;16.374;2022-11-18T20:15:02;99622.80;;;1.39;84.70
37304;BME280;23188;51.188;16.374;2022-11-18T20:19:11;99627.87;;;1.42;85.02
37304;BME280;23188;51.188;16.374;2022-11-18T20:23:13;99635.11;;;1.46;85.17
37304;BME280;23188;51.188;16.374;2022-11-18T20:27:14;99637.35;;;1.45;84.60
37304;BME280;23188;51.188;16.374;2022-11-18T20:31:19;99638.19;;;1.46;85.51
37304;BME280;23188;51.188;16.374;2022-11-18T20:35:21;99635.11;;;1.46;85.02
37304;BME280;23188;51.188;16.374;2022-11-18T20:39:22;99635.84;;;1.41;85.29
37304;BME280;23188;51.188;16.374;2022-11-18T20:43:26;99635.56;;;1.46;85.85
37304;BME280;23188;51.188;16.374;2022-11-18T20:47:29;99644.11;;;1.49;85.60
37304;BME280;23188;51.188;16.374;2022-11-18T20:51:30;99651.05;;;1.50;85.53
37304;BME280;23188;51.188;16.374;2022-11-18T20:55:35;99652.08;;;1.48;85.18
37304;BME280;23188;51.188;16.374;2022-11-18T20:59:38;99662.84;;;1.50;85.62
37304;BME280;23188;51.188;16.374;2022-11-18T21:03:46;99667.53;;;1.52;85.12
37304;BME280;23188;51.188;16.374;2022-11-18T21:07:51;99669.70;;;1.53;84.55
37304;BME280;23188;51.188;16.374;2022-11-18T21:11:53;99677.02;;;1.55;85.10
37304;BME280;23188;51.188;16.374;2022-11-18T21:16:11;99674.40;;;1.55;85.45
37304;BME280;23188;51.188;16.374;2022-11-18T21:20:12;99681.47;;;1.62;85.00
37304;BME280;23188;51.188;16.374;2022-11-18T21:24:18;99675.30;;;1.63;85.44
37304;BME280;23188;51.188;16.374;2022-11-18T21:28:25;99689.13;;;1.58;85.07
37304;BME280;23188;51.188;16.374;2022-11-18T21:32:27;99688.50;;;1.52;83.43
37304;BME280;23188;51.188;16.374;2022-11-18T21:36:29;99680.05;;;1.47;83.39
37304;BME280;23188;51.188;16.374;2022-11-18T21:40:30;99688.50;;;1.52;83.30
37304;BME280;23188;51.188;16.374;2022-11-18T21:44:39;99692.75;;;1.55;84.31
37304;BME280;23188;51.188;16.374;2022-11-18T21:48:40;99686.50;;;1.58;84.37
37304;BME280;23188;51.188;16.374;2022-11-18T21:52:42;99691.41;;;1.64;85.56
37304;BME280;23188;51.188;16.374;2022-11-18T21:56:43;99695.62;;;1.66;85.18
37304;BME280;23188;51.188;16.374;2022-11-18T22:00:44;99695.17;;;1.67;85.26
37304;BME280;23188;51.188;16.374;2022-11-18T22:04:46;99690.38;;;1.66;85.59
37304;BME280;23188;51.188;16.374;2022-11-18T22:09:03;99694.72;;;1.67;85.46
37304;BME280;23188;51.188;16.374;2022-11-18T22:13:05;99712.97;;;1.69;85.35
37304;BME280;23188;51.188;16.374;2022-11-18T22:17:07;99710.28;;;1.70;85.33
37304;BME280;23188;51.188;16.374;2022-11-18T22:21:16;99709.97;;;1.68;84.98
37304;BME280;23188;51.188;16.374;2022-11-18T22:25:19;99713.70;;;1.64;84.62
37304;BME280;23188;51.188;16.374;2022-11-18T22:29:20;99720.59;;;1.58;84.63
37304;BME280;23188;51.188;16.374;2022-11-18T22:33:24;99724.11;;;1.56;85.35
37304;BME280;23188;51.188;16.374;2022-11-18T22:37:25;99714.82;;;1.51;85.31
37304;BME280;23188;51.188;16.374;2022-11-18T22:41:27;99724.28;;;1.53;85.33
37304;BME280;23188;51.188;16.374;2022-11-18T22:45:31;99722.20;;;1.51;85.55
37304;BME280;23188;51.188;16.374;2022-11-18T22:49:32;99726.73;;;1.56;86.13
37304;BME280;23188;51.188;16.374;2022-11-18T22:53:34;99726.28;;;1.57;85.41
37304;BME280;23188;51.188;16.374;2022-11-18T22:57:35;99728.59;;;1.54;83.21
37304;BME280;23188;51.188;16.374;2022-11-18T23:01:41;99729.52;;;1.53;84.01
37304;BME280;23188;51.188;16.374;2022-11-18T23:05:44;99730.23;;;1.48;84.09
37304;BME280;23188;51.188;16.374;2022-11-18T23:09:46;99723.01;;;1.36;84.63
37304;BME280;23188;51.188;16.374;2022-11-18T23:13:47;99732.64;;;1.44;84.78